Es ist keine erhöhte Aufmerksamkeit aufgrund des Wetters notwendig.    Es gibt keine Warnungen.

Meine Webcam more information My webcam


Donnerradar more information blitzortung!


Regenradar more information rain snow radar



METAR-Meldungen aus der Umgebung

   
EDDH - Hamburg
Aktualisierung: 24-09-2020 02:50
Klar  
Klar  
   Wind: SSO 16.7 km/h
Wind: SSO 16.7 km/h
Temperatur: 16°C
Taupunkt: 11°C
Luftfeuchte: 72%
Luftdruck: 999 hPa
Sichtbarkeit: More than 10 km
Bewölkung: Klar
EDDH 240050Z 15009KT CAVOK 16/11 Q0999 NOSIG
EDHL - Lübeck
Aktualisierung: 23-09-2020 22:20
Nicht aktuell
Klar  
Klar  
   Wind: variiert 3.7 km/h
Wind: variiert 3.7 km/h
Temperatur: 17°C
Taupunkt: 10°C
Luftfeuchte: 64%
Luftdruck: 1002 hPa
Sichtbarkeit: More than 10 km
Bewölkung: Klar
EDHL 232020Z VRB02KT CAVOK 17/10 Q1002
EHBK - Amsterdam
Aktualisierung: 24-09-2020 02:55
Leichter Niederschlag möglich, Stark bewölkt  
Leichter Niederschlag möglich, Stark bewölkt  
   Wind: WSW 25.9 km/h
Wind: WSW 25.9 km/h
Temperatur: 15°C
Taupunkt: 12°C
Luftfeuchte: 82%
Luftdruck: 1001 hPa
Bewölkt: Stark bewölkt
Sichtbarkeit: More than 10 km
Bewölkung: leicht bewölkt 800 ft,
Teilweise bewölkt 1300 ft,
Stark bewölkt 2900 ft
EHBK 240055Z AUTO 24014KT 200V300 9999 -RA FEW008 SCT013 BKN029 15/12 Q1001 RERA
EBCV - Mons/Bergen
Aktualisierung: 24-09-2020 02:55
Klar  
Klar  
   Wind: SW 18.5 km/h
Wind: SW 18.5 km/h
Temperatur: 12°C
Taupunkt: 10°C
Luftfeuchte: 88%
Luftdruck: 1002 hPa
Bewölkt: Klar
Sichtbarkeit: More than 10 km
Bewölkung: Klar
EBCV 240055Z AUTO 22010KT 9999 NCD 12/10 Q1002 BLU
ELLX - Luxemburg
Aktualisierung: 24-09-2020 02:50
Light Showers, Regen, Stark bewölkt  
Light Showers, Regen, Stark bewölkt  
   Wind: SW 18.5 km/h
Wind: SW 18.5 km/h
Temperatur: 15°C
Taupunkt: 14°C
Luftfeuchte: 94%
Luftdruck: 1004 hPa
Bewölkt: Stark bewölkt
Sichtbarkeit: More than 10 km
Bewölkung: leicht bewölkt 700 ft,
Teilweise bewölkt 900 ft,
Stark bewölkt 1100 ft
ELLX 240050Z AUTO 23010KT 9999 -SHRA FEW007/// SCT009/// BKN011/// 15/14 Q1004 RESHRA NOSIG
EBOS - Oostende
Aktualisierung: 24-09-2020 02:50
Teilweise bewölkt  
Teilweise bewölkt  
   Wind: WSW 42.6 km/h<br />Gust to 42.6 km/h
Wind: WSW 42.6 km/h
Gust to 42.6 km/h
Temperatur: 13°C
Taupunkt: 8°C
Luftfeuchte: 72%
Luftdruck: 1000 hPa
Bewölkt: Teilweise bewölkt
Sichtbarkeit: More than 10 km
Bewölkung: Teilweise bewölkt 3400 ft
EBOS 240050Z 25023G33KT 9999 SCT034 13/08 Q1000 NOSIG

Script entwickelt von  Saratoga-weather.org Angepasst für das Template von  Weerstation Leuven

Sie finden meine Wetter-Infos auch auf:

Weather Underground

Germany Weather Network

AWEKAS

WeatherlinkIP

Von mir verwendete Ausrüstung:

Wetterstation
Davis VP2

Wetterprogramm
Weather Display

WetterComputer
RaspberryPi

Anbieter
1und1

Davis VP2

Weather Display

RaspberryPi

1und1